Alna, Maine
Current Conditions -  °F | °C
As of 5:53 PM on Monday 24 Nov 2014 (Local Time) from KIWI Reporting Station
Haze Haze  
Wind Chill: 15°   Ceiling: 300
Heat Index: 15°   Visibility: 6mi
Dew Point: 14°   Wind: 14mph
Humidity: 96%   Direction: 210°SSW
Pressure: 29.56"   Gusts: 25mph
Location:  44.11°N, 69.6°W
Report Text: KIWI 242253Z AUTO 21012G22KT 6SM BR OVC003 15/14 A2956 RMK AO2 SLP011 T01500144
Loading
Personal Weather Stations






























Interactive Weather Map New forecast layout! Learn more

10-Day Weather Forecast

Advertisements
Track Severe Weather on mobile